Weather observations for the past three days for
St Clair County International Airport
Metric (Imperial)
Date Time (edt) Wind (kph) Vis. (km) Weather Sky Cond. Temperature (ºC) Relative Humidity Wind Chill (°C) Heat Index (°C) Pressure Precipitation (cm)
Air Dwpt 6 hour altimeter (cm) sea level (mb) 1 hr 3 hr 6 hr
Max. Min.
06 17:35 N 15 16.09 Fair CLR 23 14 57% 76.48 0.0
06 17:15 NE 13 16.09 Fair CLR 23 14 57% 76.45 0.0
06 16:55 NE 13 16.09 Fair CLR 24 14 54% 25 76.48 0.0
06 16:36 N 13 16.09 Fair CLR 24 14 54% 25 76.48 0.0
06 16:15 N 11 16.09 Fair CLR 24 13 50% 25 76.45 0.0
06 15:55 N 11 16.09 Fair CLR 24 13 50% 25 76.45 0.0
06 15:35 N 13 16.09 Fair CLR 24 13 50% 25 76.45 0.0
06 15:15 N 11 16.09 Fair CLR 24 12 47% 25 76.48 0.0
06 14:55 N 15 G 26 16.09 Fair CLR 24 12 47% 25 76.48 0.0
06 14:35 N 11 16.09 Partly Cloudy SCT038 24 12 47% 25 76.48 0.0
06 14:16 N 13 16.09 Fair CLR 24 11 44% 25 76.5 0.0
06 13:55 N 15 16.09 Fair CLR 24 11 44% 25 76.5 0.0
06 13:35 NE 15 16.09 Fair CLR 24 12 47% 25 76.53 0.0
06 13:15 NE 15 16.09 Fair CLR 24 12 47% 25 76.56 0.0
06 12:55 N 17 16.09 Fair CLR 24 13 50% 25 76.53 0.0
06 12:35 N 13 16.09 Fair CLR 24 13 50% 25 76.53 0.0
06 12:15 NE 15 G 26 16.09 Fair CLR 23 14 57% 76.53 0.0
06 11:56 N 15 16.09 Fair CLR 23 13 53% 76.53 0.0
06 11:35 N 17 16.09 Fair CLR 23 14 57% 76.53 0.0
06 11:15 NE 20 G 26 16.09 Fair CLR 23 15 61% 76.5 0.0
06 10:55 NE 17 16.09 Partly Cloudy SCT025 22 14 61% 76.5 0.0
06 10:35 NE 15 16.09 Partly Cloudy SCT020 SCT025 22 15 65% 76.5 0.0
06 10:15 NE 13 16.09 Partly Cloudy SCT020 22 16 69% 76.48 0.0
06 09:55 N 11 16.09 Partly Cloudy SCT016 21 16 73% 76.48 0.0
06 09:36 N 7 16.09 Fair CLR 21 17 78% 76.45 0.0
06 09:15 N 6 16.09 Fair CLR 19 17 88% 76.48 0.0
06 08:55 NW 7 16.09 Fair CLR 18 17 94% 76.45 0.0
06 08:35 NW 6 16.09 Fair CLR 17 16 94% 76.45 0.0
06 08:15 Calm 16.09 Fair CLR 16 15 94% 76.45 0.0
06 07:55 Calm 4.02 Fog/Mist CLR 14 13 94% 76.43 0.0
06 07:35 Calm 1.61 Fog/Mist BKN002 13 12 94% 76.4 0.0
06 07:16 Calm 1.21 Fog/Mist BKN002 12 11 94% 76.4 0.0
06 06:55 Calm 1.21 Fog/Mist BKN002 13 11 88% 76.38 0.0
06 06:35 Calm 1.21 Fog/Mist SCT002 12 11 94% 76.38 0.0
06 06:15 Calm 1.61 Fog/Mist BKN002 14 12 88% 76.38 0.0
06 05:55 Calm 1.61 Fog/Mist VV007 13 12 94% 76.38 0.0
06 05:35 Calm 6.44 Fog/Mist CLR 14 12 88% 76.35 0.0
06 05:15 Calm 4.83 Fog/Mist CLR 14 13 94% 76.35 0.0
06 04:56 Calm 16.09 Fair CLR 14 13 94% 76.35 0.0
06 04:35 NW 6 16.09 Fair CLR 15 13 88% 76.35 0.0
06 04:15 NW 7 16.09 Fair CLR 15 13 88% 76.35 0.0
06 03:55 NW 9 16.09 Fair CLR 15 13 88% 76.35 0.0
06 03:35 NW 6 16.09 Fair CLR 15 13 88% 76.33 0.0
06 03:15 NW 7 16.09 Fair CLR 15 14 94% 76.33 0.0
06 02:55 NW 7 16.09 Fair CLR 15 14 94% 76.33 0.0
06 02:36 NW 7 16.09 Fair CLR 15 13 88% 76.33 0.0
06 01:55 NW 7 16.09 Fair CLR 15 13 88% 76.33 0.0
06 01:35 NW 6 16.09 Fair CLR 15 13 88% 76.33 0.0
06 01:15 NW 6 16.09 Fair CLR 15 13 88% 76.3 0.0
06 00:55 NW 6 16.09 Fair CLR 15 13 88% 76.3 0.0
06 00:35 Calm 16.09 Fair CLR 15 14 94% 76.3 0.0
06 00:15 NW 6 16.09 Fair CLR 15 14 94% 76.3 0.0
05 23:56 NW 7 16.09 Fair CLR 15 13 88% 76.28 0.0
05 23:35 NW 9 16.09 Fair CLR 15 13 88% 76.28 0.0
05 23:15 NW 6 16.09 Fair CLR 14 13 94% 76.28 0.0
05 22:55 Calm 16.09 Fair CLR 14 12 88% 76.28 0.0
05 22:35 Calm 16.09 Fair CLR 15 13 88% 76.28 0.0
05 22:15 Calm 16.09 Fair CLR 15 13 88% 76.28 0.0
05 21:55 Calm 16.09 Fair CLR 16 13 83% 76.28 0.0
05 21:36 Calm 16.09 Fair CLR 17 13 77% 76.25 0.0
05 21:15 N 6 16.09 Fair CLR 18 13 73% 76.25 0.0
05 20:55 NW 7 16.09 Fair CLR 18 13 73% 76.25 0.0
05 20:35 N 7 16.09 Fair CLR 18 13 73% 76.25 0.0
05 20:15 N 7 16.09 Fair CLR 19 13 68% 76.25 0.0
05 19:55 N 9 16.09 Fair CLR 20 13 64% 76.25 0.0
05 19:35 N 13 16.09 Fair CLR 20 13 64% 76.25 0.0
05 19:16 N 11 16.09 Fair CLR 21 13 60% 76.25 0.0
05 18:55 N 7 16.09 Fair CLR 22 13 57% 76.25 0.0
05 18:35 NE 11 16.09 Fair CLR 22 13 57% 76.23 0.0
05 18:15 N 6 16.09 Fair CLR 23 13 53% 76.23 0.0
05 17:55 NE 11 16.09 Fair CLR 23 14 57% 76.23 0.0
05 17:35 N 15 G 28 16.09 Fair CLR 24 14 54% 25 76.2 0.0
05 17:15 N 13 16.09 Fair CLR 24 13 50% 25 76.2 0.0
05 16:56 NE 15 G 26 16.09 Fair CLR 24 12 47% 25 76.2 0.0
05 16:35 N 13 16.09 Fair CLR 25 13 47% 26 76.2 0.0
05 16:15 NE 19 16.09 Fair CLR 25 12 44% 26 76.23 0.0
05 15:55 NE 17 16.09 Fair CLR 25 12 44% 26 76.23 0.0
05 13:55 NE 11 16.09 Fair CLR 25 11 42% 26 76.25 0.0
05 13:35 NE 13 16.09 Fair CLR 25 10 39% 26 76.23 0.0
05 13:15 N 13 16.09 Fair CLR 25 11 42% 26 76.23 0.0
05 12:55 NE 17 16.09 Fair CLR 25 13 47% 26 76.23 0.0
05 12:35 NE 13 16.09 Fair CLR 25 13 47% 26 76.23 0.0
05 12:16 NE 9 16.09 Fair CLR 25 14 51% 26 76.23 0.0
05 11:55 NE 7 16.09 Fair CLR 25 14 51% 26 76.23 0.0
05 11:35 E 7 16.09 Fair CLR 24 14 54% 25 76.2 0.0
05 11:15 NE 6 16.09 Fair CLR 24 15 57% 25 76.2 0.0
05 10:55 NE 13 16.09 Fair CLR 24 14 54% 25 76.2 0.0
05 10:35 NE 11 16.09 Fair CLR 23 15 61% 76.2 0.0
05 10:15 NE 7 16.09 Fair CLR 23 15 61% 76.2 0.0
05 09:56 NE 9 16.09 Fair CLR 22 15 65% 76.2 0.0
05 09:35 NE 11 16.09 Fair CLR 22 15 65% 76.2 0.0
05 09:15 NE 7 16.09 Partly Cloudy SCT070 21 15 69% 76.2 0.0
05 08:55 NE 9 16.09 Overcast BKN043 OVC070 20 15 73% 76.2 0.0
05 08:35 Calm 16.09 Overcast BKN041 BKN065 OVC080 20 16 78% 76.2 0.0
05 08:15 Calm 16.09 Overcast SCT039 SCT065 OVC080 20 16 78% 76.17 0.0
05 07:55 Calm 16.09 Overcast SCT036 BKN065 OVC080 19 17 88% 76.17 0.0
05 07:36 Calm 16.09 Overcast SCT036 OVC055 18 17 94% 76.17 0.0
05 07:15 Calm 16.09 Overcast BKN036 OVC055 19 17 88% 76.17 0.0
05 06:55 Calm 16.09 Overcast OVC034 19 17 88% 76.17 0.0
05 06:35 Calm 16.09 Overcast OVC034 18 17 94% 76.17 0.0
05 06:15 Calm 16.09 Overcast BKN034 OVC060 18 16 88% 76.15 0.0
05 05:55 Calm 16.09 Overcast BKN060 BKN080 OVC120 19 16 83% 76.12 0.0
05 05:35 NE 6 16.09 Mostly Cloudy SCT060 BKN120 19 16 83% 76.12 0.0
05 05:16 Calm 16.09 Mostly Cloudy SCT060 BKN120 19 16 83% 76.12 0.0
05 04:55 NE 6 16.09 Partly Cloudy SCT060 SCT110 19 16 83% 76.07 0.0
05 04:35 NE 6 16.09 Mostly Cloudy SCT060 SCT080 BKN110 19 17 88% 76.1 0.0
05 04:15 Calm 16.09 Overcast SCT036 BKN060 OVC110 18 17 94% 76.12 0.0
05 03:55 Calm 16.09 Partly Cloudy SCT036 SCT060 19 17 88% 76.12 0.0
05 03:35 Calm 16.09 Fair CLR 18 17 94% 76.1 0.0
05 03:15 Calm 16.09 Fair CLR 18 17 94% 76.07 0.0
05 02:56 Calm 11.27 Fair CLR 18 17 94% 76.07 0.0
05 02:35 Calm 2.01 Fog/Mist VV007 18 17 94% 76.07 0.0
05 02:15 Calm 6.44 Fog/Mist SCT037 18 17 94% 76.1 0.0
05 01:55 Calm 8.05 Fog/Mist OVC035 18 17 94% 76.12 0.0
05 01:35 Calm 11.27 Overcast SCT002 OVC033 18 17 94% 76.12 0.0
05 01:15 Calm 1.21 Fog/Mist BKN002 BKN033 18 17 94% 76.12 0.0
05 00:55 Calm 11.27 Fair CLR 19 17 88% 76.12 0.0
05 00:36 Calm 16.09 Fair CLR 19 17 88% 76.15 0.0
05 00:15 Calm 6.44 Fog/Mist CLR 19 17 88% 76.15 0.0
04 23:55 Calm 11.27 Partly Cloudy SCT070 19 18 94% 76.15 0.0
04 23:35 NW 7 16.09 Mostly Cloudy BKN070 20 18 88% 76.17 0.0
04 23:15 Calm 16.09 Mostly Cloudy BKN070 20 18 88% 76.15 0.0
04 22:55 Calm 16.09 Partly Cloudy SCT070 20 18 88% 76.15 0.0
04 22:35 Calm 16.09 Mostly Cloudy SCT018 BKN070 20 18 88% 76.15 0.0
04 22:16 Calm 16.09 Overcast SCT018 OVC070 21 18 83% 76.17 0.0
04 21:55 Calm 16.09 Overcast SCT018 OVC075 21 18 83% 76.17 0.0
04 21:35 N 6 16.09 Overcast SCT043 OVC075 21 19 88% 76.17 0.0
04 21:15 Calm 16.09 Overcast BKN043 OVC075 21 19 88% 76.15 0.0
04 20:55 Calm 16.09 Overcast SCT045 OVC075 21 18 83% 76.15 0.0
04 20:35 Calm 16.09 Mostly Cloudy BKN075 21 18 83% 76.15 0.0
04 20:15 Calm 16.09 Partly Cloudy SCT016 SCT075 22 18 78% 76.12 0.0
04 19:56 Calm 16.09 Mostly Cloudy BKN016 22 18 78% 76.12 0.0
04 19:35 NE 9 16.09 Overcast OVC016 22 19 83% 76.12 0.0
04 19:15 NE 9 16.09 Overcast SCT010 BKN014 OVC075 22 19 83% 76.12 0.0
04 18:55 NE 9 16.09 Overcast OVC010 23 19 78% 76.12 0.0
04 18:35 NE 9 16.09 Overcast OVC010 23 19 78% 76.07 0.0
04 18:15 N 9 16.09 Overcast OVC010 23 20 83% 76.07 0.0
04 17:55 NE 15 16.09 Partly Cloudy SCT010 24 20 78% 24 76.05 0.0
04 17:36 NE 15 16.09 Partly Cloudy SCT022 SCT028 SCT034 24 20 78% 24 76.02 0.0
04 17:15 NE 15 16.09 Overcast BKN020 OVC026 25 20 74% 26 76.02 0.0
04 16:55 NE 7 16.09 Overcast BKN019 OVC025 25 20 74% 26 76 0.0
04 16:35 N 6 16.09 Mostly Cloudy BKN017 BKN023 26 20 70% 27 76 0.0
04 16:15 N 6 16.09 Mostly Cloudy BKN017 25 21 79% 26 76.02 0.0
04 15:55 NW 6 16.09 Overcast OVC017 25 21 79% 26 76.02 0.0
04 15:35 Calm 16.09 Overcast BKN015 OVC021 24 21 83% 24 76.05 0.0
04 15:16 Calm 16.09 Mostly Cloudy BKN015 24 22 89% 24 76.05 0.0
04 14:55 Calm 16.09 Overcast BKN013 OVC017 24 22 89% 24 76.07 0.0
04 14:35 Calm 16.09 Overcast OVC011 23 22 94% 76.07 0.0
04 14:15 SE 6 16.09 Overcast OVC011 23 21 89% 76.07 0.0
04 13:55 Calm 16.09 Overcast OVC011 23 22 94% 76.07 0.0
04 13:35 SE 6 16.09 Overcast OVC009 23 21 89% 76.12 0.0
04 13:15 Calm 11.27 Overcast OVC007 22 21 94% 76.15 0.0
04 12:35 Calm 11.27 Overcast OVC005 22 21 94% 76.17 0.0
04 12:15 S 6 11.27 Overcast OVC003 22 21 94% 76.17 0.0
04 11:55 S 6 8.05 Light Drizzle OVC003 22 20 88% 76.23 0.0
04 11:35 S 6 4.83 Light Rain OVC003 21 20 94% 76.25 0.0
04 11:15 S 6 4.02 Light Rain OVC003 20 19 94% 76.28 0.0
04 10:55 Calm 4.83 Rain OVC003 20 19 94% 76.28 0.0
04 10:36 Calm 4.02 Light Drizzle OVC003 20 19 94% 76.23 0.0
04 10:15 Calm 4.83 Fog/Mist OVC003 20 19 94% 76.23 0.0
04 09:55 Calm 4.02 Rain OVC003 20 18 88% 76.25 0.0
04 09:35 Calm 4.83 Rain OVC003 20 18 88% 76.3 0.0
04 09:15 Calm 3.22 Fog/Mist OVC003 19 18 94% 76.25 0.0
04 08:55 Calm 2.01 Fog/Mist OVC003 19 18 94% 76.23 0.0
04 08:35 Calm 0.80 Light Rain OVC003 19 18 94% 76.2 0.0
04 08:16 Calm 2.41 Light Rain OVC003 19 18 94% 76.23 0.0
04 07:55 Calm 1.21 Fog/Mist OVC003 19 18 94% 76.2 0.0
04 07:35 Calm 0.80 Fog OVC001 19 18 94% 76.17 0.0
04 07:15 Calm 0.80 Fog OVC001 19 18 94% 76.17 0.0
04 06:55 Calm 1.61 Fog/Mist OVC001 19 17 88% 76.15 0.0
04 06:35 Calm 0.80 Fog OVC001 18 17 94% 76.15 0.0
04 06:15 Calm 0.80 Fog OVC001 18 17 94% 76.12 0.0
04 05:56 Calm 2.41 Fog/Mist OVC001 18 17 94% 76.12 0.0
04 05:35 Calm 1.61 Fog/Mist OVC001 18 17 94% 76.15 0.0
04 05:15 Calm 0.80 Fog OVC001 18 17 94% 76.15 0.0
04 04:55 Calm 0.40 Fog OVC001 18 17 94% 76.15 0.0
04 04:35 Calm 2.01 Fog/Mist OVC001 18 17 94% 76.17 0.0
04 04:15 Calm 0.40 Fog OVC001 18 17 94% 76.17 0.0
04 03:55 Calm 0.40 Fog OVC001 18 17 94% 76.12 0.0
04 03:36 Calm 0.40 Fog OVC001 18 17 94% 76.15 0.0
04 03:15 Calm 0.40 Fog OVC003 19 18 94% 76.17 0.0
04 02:55 Calm 1.21 Fog/Mist BKN003 BKN100 19 18 94% 76.2 0.0
04 02:35 Calm 11.27 Mostly Cloudy BKN100 20 19 94% 76.23 0.0
04 02:15 Calm 11.27 Mostly Cloudy SCT006 BKN110 20 19 94% 76.23 0.0
04 01:55 Calm 16.09 Overcast OVC006 20 19 94% 76.2 0.0
04 01:35 N 6 11.27 Overcast OVC004 20 19 94% 76.2 0.0
04 01:16 NE 6 2.82 Fog/Mist OVC002 20 19 94% 76.23 0.0
04 00:55 Calm 0.40 Fog OVC002 20 19 94% 76.25 0.0
04 00:35 Calm 0.40 Fog OVC002 19 18 94% 76.23 0.0
04 00:15 Calm 1.21 Fog/Mist OVC002 18 17 94% 76.2 0.0
03 23:55 Calm 2.01 Fog/Mist OVC002 18 17 94% 76.17 0.0
03 23:35 Calm 0.80 Fog OVC002 18 17 94% 76.17 0.0
03 23:15 Calm 0.80 Fog OVC002 18 17 94% 76.15 0.0
03 22:55 Calm 0.80 Fog OVC002 19 17 88% 76.15 0.0
03 22:36 Calm 0.80 Fog OVC002 18 17 94% 76.15 0.0
03 22:15 Calm 0.80 Fog OVC002 19 17 88% 76.15 0.0
03 21:55 Calm 0.40 Fog OVC002 19 18 94% 76.15 0.0
03 21:35 Calm 1.61 Fog/Mist OVC002 20 18 88% 76.15 0.0
03 21:15 Calm 0.40 Fog OVC002 20 19 94% 76.15 0.0
03 20:55 Calm 1.21 Fog/Mist BKN002 OVC008 20 19 94% 76.15 0.0
03 20:35 Calm 2.01 Fog/Mist OVC008 20 19 94% 76.12 0.0
03 20:16 Calm 16.09 Mostly Cloudy BKN008 21 19 88% 76.07 0.0
03 19:55 Calm 16.09 Mostly Cloudy BKN008 21 19 88% 76.07 0.0
03 19:35 Calm 16.09 Partly Cloudy SCT006 SCT120 21 19 88% 76.05 0.0
03 19:15 S 6 16.09 Partly Cloudy SCT004 SCT120 21 19 88% 76 0.0
03 18:55 S 7 16.09 Mostly Cloudy SCT004 BKN120 21 19 88% 76.02 0.0
03 18:35 S 15 16.09 Partly Cloudy SCT120 21 20 94% 76.02 0.0
03 18:15 SW 6 16.09 Partly Cloudy SCT120 21 20 94% 76.05 0.0
03 17:56 Calm 16.09 Partly Cloudy SCT120 21 19 88% 76.05 0.0
Date Time (edt) Wind (kph) Vis. (km) Weather Sky Cond. Air Dwpt Max. Min. Relative Humidity Wind Chill (°C) Heat Index (°C) altimeter (cm) sea level (mb) 1 hr 3 hr 6 hr
6 hour
Temperature (ºC) Pressure Precipitation (cm)